sensor_id;sensor_type;location;lat;lon;timestamp;P1;durP1;ratioP1;P2;durP2;ratioP2
5704;SDS011;2877;48.238;11.160;2024-01-27T00:00:08;6.40;;;1.20;;
5704;SDS011;2877;48.238;11.160;2024-01-27T00:02:34;1.70;;;0.97;;
5704;SDS011;2877;48.238;11.160;2024-01-27T00:05:00;4.10;;;1.03;;
5704;SDS011;2877;48.238;11.160;2024-01-27T00:07:27;1.10;;;0.97;;
5704;SDS011;2877;48.238;11.160;2024-01-27T00:09:53;2.67;;;1.33;;
5704;SDS011;2877;48.238;11.160;2024-01-27T00:12:23;8.57;;;2.80;;
5704;SDS011;2877;48.238;11.160;2024-01-27T00:14:48;5.50;;;2.63;;
5704;SDS011;2877;48.238;11.160;2024-01-27T00:17:14;5.00;;;2.40;;
5704;SDS011;2877;48.238;11.160;2024-01-27T00:19:40;5.30;;;2.50;;
5704;SDS011;2877;48.238;11.160;2024-01-27T00:22:06;4.43;;;1.80;;
5704;SDS011;2877;48.238;11.160;2024-01-27T00:24:32;6.07;;;1.80;;
5704;SDS011;2877;48.238;11.160;2024-01-27T00:26:58;2.70;;;1.37;;
5704;SDS011;2877;48.238;11.160;2024-01-27T00:29:24;5.67;;;1.43;;
5704;SDS011;2877;48.238;11.160;2024-01-27T00:31:50;5.93;;;1.30;;
5704;SDS011;2877;48.238;11.160;2024-01-27T00:34:15;1.47;;;1.00;;
5704;SDS011;2877;48.238;11.160;2024-01-27T00:36:41;5.07;;;1.10;;
5704;SDS011;2877;48.238;11.160;2024-01-27T00:39:13;3.60;;;1.20;;
5704;SDS011;2877;48.238;11.160;2024-01-27T00:41:42;4.13;;;1.33;;
5704;SDS011;2877;48.238;11.160;2024-01-27T00:44:08;2.30;;;1.07;;
5704;SDS011;2877;48.238;11.160;2024-01-27T00:46:34;2.43;;;1.33;;
5704;SDS011;2877;48.238;11.160;2024-01-27T00:48:59;2.10;;;1.30;;
5704;SDS011;2877;48.238;11.160;2024-01-27T00:51:25;3.70;;;1.20;;
5704;SDS011;2877;48.238;11.160;2024-01-27T00:53:50;2.63;;;1.23;;
5704;SDS011;2877;48.238;11.160;2024-01-27T00:56:16;1.43;;;1.30;;
5704;SDS011;2877;48.238;11.160;2024-01-27T00:58:41;2.50;;;1.37;;
5704;SDS011;2877;48.238;11.160;2024-01-27T01:01:07;2.73;;;1.67;;
5704;SDS011;2877;48.238;11.160;2024-01-27T01:03:32;5.67;;;1.63;;
5704;SDS011;2877;48.238;11.160;2024-01-27T01:05:58;3.70;;;1.30;;
5704;SDS011;2877;48.238;11.160;2024-01-27T01:08:23;6.33;;;1.57;;
5704;SDS011;2877;48.238;11.160;2024-01-27T01:10:49;3.93;;;1.50;;
5704;SDS011;2877;48.238;11.160;2024-01-27T01:13:15;4.30;;;1.20;;
5704;SDS011;2877;48.238;11.160;2024-01-27T01:15:40;2.93;;;1.27;;
5704;SDS011;2877;48.238;11.160;2024-01-27T01:18:06;2.43;;;1.30;;
5704;SDS011;2877;48.238;11.160;2024-01-27T01:20:31;3.70;;;1.07;;
5704;SDS011;2877;48.238;11.160;2024-01-27T01:22:57;4.30;;;1.40;;
5704;SDS011;2877;48.238;11.160;2024-01-27T01:25:23;3.80;;;1.60;;
5704;SDS011;2877;48.238;11.160;2024-01-27T01:27:49;8.73;;;1.30;;
5704;SDS011;2877;48.238;11.160;2024-01-27T01:30:15;6.97;;;1.70;;
5704;SDS011;2877;48.238;11.160;2024-01-27T01:32:41;2.00;;;1.10;;
5704;SDS011;2877;48.238;11.160;2024-01-27T01:35:07;2.47;;;1.60;;
5704;SDS011;2877;48.238;11.160;2024-01-27T01:37:34;2.43;;;1.43;;
5704;SDS011;2877;48.238;11.160;2024-01-27T01:40:00;1.27;;;1.17;;
5704;SDS011;2877;48.238;11.160;2024-01-27T01:42:25;3.27;;;1.73;;
5704;SDS011;2877;48.238;11.160;2024-01-27T01:44:51;1.60;;;1.33;;
5704;SDS011;2877;48.238;11.160;2024-01-27T01:47:17;3.63;;;1.90;;
5704;SDS011;2877;48.238;11.160;2024-01-27T01:49:43;4.27;;;2.57;;
5704;SDS011;2877;48.238;11.160;2024-01-27T01:52:08;5.90;;;2.90;;
5704;SDS011;2877;48.238;11.160;2024-01-27T01:54:35;3.90;;;2.20;;
5704;SDS011;2877;48.238;11.160;2024-01-27T01:57:01;2.57;;;1.67;;
5704;SDS011;2877;48.238;11.160;2024-01-27T01:59:28;2.50;;;1.37;;
5704;SDS011;2877;48.238;11.160;2024-01-27T02:01:53;1.17;;;1.07;;
5704;SDS011;2877;48.238;11.160;2024-01-27T02:04:19;1.50;;;1.23;;
5704;SDS011;2877;48.238;11.160;2024-01-27T02:06:45;4.37;;;1.30;;
5704;SDS011;2877;48.238;11.160;2024-01-27T02:09:10;1.67;;;1.37;;
5704;SDS011;2877;48.238;11.160;2024-01-27T02:11:36;1.30;;;1.20;;
5704;SDS011;2877;48.238;11.160;2024-01-27T02:14:01;1.53;;;1.43;;
5704;SDS011;2877;48.238;11.160;2024-01-27T02:16:27;3.90;;;1.40;;
5704;SDS011;2877;48.238;11.160;2024-01-27T02:18:53;2.30;;;1.40;;
5704;SDS011;2877;48.238;11.160;2024-01-27T02:21:18;1.33;;;1.27;;
5704;SDS011;2877;48.238;11.160;2024-01-27T02:23:44;3.87;;;1.13;;
5704;SDS011;2877;48.238;11.160;2024-01-27T02:26:09;1.57;;;1.47;;
5704;SDS011;2877;48.238;11.160;2024-01-27T02:28:35;1.90;;;1.47;;
5704;SDS011;2877;48.238;11.160;2024-01-27T02:31:00;1.30;;;1.20;;
5704;SDS011;2877;48.238;11.160;2024-01-27T02:33:26;2.13;;;1.40;;
5704;SDS011;2877;48.238;11.160;2024-01-27T02:35:52;1.97;;;1.77;;
5704;SDS011;2877;48.238;11.160;2024-01-27T02:38:17;2.80;;;1.23;;
5704;SDS011;2877;48.238;11.160;2024-01-27T02:40:43;5.77;;;1.50;;
5704;SDS011;2877;48.238;11.160;2024-01-27T02:43:08;1.60;;;1.40;;
5704;SDS011;2877;48.238;11.160;2024-01-27T02:45:34;3.70;;;1.60;;
5704;SDS011;2877;48.238;11.160;2024-01-27T02:47:59;4.20;;;1.53;;
5704;SDS011;2877;48.238;11.160;2024-01-27T02:50:25;5.33;;;1.87;;
5704;SDS011;2877;48.238;11.160;2024-01-27T02:52:50;5.10;;;1.67;;
5704;SDS011;2877;48.238;11.160;2024-01-27T02:55:16;2.30;;;1.50;;
5704;SDS011;2877;48.238;11.160;2024-01-27T02:57:41;1.43;;;1.33;;
5704;SDS011;2877;48.238;11.160;2024-01-27T03:00:07;3.23;;;1.30;;
5704;SDS011;2877;48.238;11.160;2024-01-27T03:02:33;1.63;;;1.27;;
5704;SDS011;2877;48.238;11.160;2024-01-27T03:04:59;4.43;;;1.43;;
5704;SDS011;2877;48.238;11.160;2024-01-27T03:07:25;2.10;;;1.43;;
5704;SDS011;2877;48.238;11.160;2024-01-27T03:09:51;3.80;;;1.50;;
5704;SDS011;2877;48.238;11.160;2024-01-27T03:12:16;6.33;;;1.73;;
5704;SDS011;2877;48.238;11.160;2024-01-27T03:14:43;3.77;;;1.70;;
5704;SDS011;2877;48.238;11.160;2024-01-27T03:17:08;8.83;;;1.83;;
5704;SDS011;2877;48.238;11.160;2024-01-27T03:19:34;1.80;;;1.33;;
5704;SDS011;2877;48.238;11.160;2024-01-27T03:21:59;4.10;;;1.40;;
5704;SDS011;2877;48.238;11.160;2024-01-27T03:24:25;2.53;;;2.07;;
5704;SDS011;2877;48.238;11.160;2024-01-27T03:26:50;4.00;;;1.77;;
5704;SDS011;2877;48.238;11.160;2024-01-27T03:29:16;8.13;;;2.07;;
5704;SDS011;2877;48.238;11.160;2024-01-27T03:31:42;7.30;;;1.73;;
5704;SDS011;2877;48.238;11.160;2024-01-27T03:34:07;3.37;;;1.50;;
5704;SDS011;2877;48.238;11.160;2024-01-27T03:36:33;2.20;;;1.50;;
5704;SDS011;2877;48.238;11.160;2024-01-27T03:38:58;2.27;;;1.70;;
5704;SDS011;2877;48.238;11.160;2024-01-27T03:41:24;4.70;;;1.47;;
5704;SDS011;2877;48.238;11.160;2024-01-27T03:43:50;5.00;;;3.03;;
5704;SDS011;2877;48.238;11.160;2024-01-27T03:46:15;2.30;;;2.00;;
5704;SDS011;2877;48.238;11.160;2024-01-27T03:48:41;1.33;;;1.23;;
5704;SDS011;2877;48.238;11.160;2024-01-27T03:51:07;2.40;;;1.27;;
5704;SDS011;2877;48.238;11.160;2024-01-27T03:53:33;5.63;;;1.80;;
5704;SDS011;2877;48.238;11.160;2024-01-27T03:55:58;2.10;;;1.40;;
5704;SDS011;2877;48.238;11.160;2024-01-27T03:58:27;5.20;;;1.43;;
5704;SDS011;2877;48.238;11.160;2024-01-27T04:00:53;10.30;;;1.87;;
5704;SDS011;2877;48.238;11.160;2024-01-27T04:03:18;2.63;;;1.30;;
5704;SDS011;2877;48.238;11.160;2024-01-27T04:05:44;5.97;;;1.43;;
5704;SDS011;2877;48.238;11.160;2024-01-27T04:08:10;5.00;;;1.10;;
5704;SDS011;2877;48.238;11.160;2024-01-27T04:10:38;3.07;;;1.83;;
5704;SDS011;2877;48.238;11.160;2024-01-27T04:13:04;3.47;;;1.80;;
5704;SDS011;2877;48.238;11.160;2024-01-27T04:15:29;3.27;;;1.47;;
5704;SDS011;2877;48.238;11.160;2024-01-27T04:17:57;3.50;;;1.97;;
5704;SDS011;2877;48.238;11.160;2024-01-27T04:20:23;4.33;;;1.90;;
5704;SDS011;2877;48.238;11.160;2024-01-27T04:22:48;7.67;;;2.00;;
5704;SDS011;2877;48.238;11.160;2024-01-27T04:25:14;2.43;;;1.50;;
5704;SDS011;2877;48.238;11.160;2024-01-27T04:27:40;4.87;;;1.50;;
5704;SDS011;2877;48.238;11.160;2024-01-27T04:30:07;2.77;;;1.63;;
5704;SDS011;2877;48.238;11.160;2024-01-27T04:32:33;3.60;;;1.60;;
5704;SDS011;2877;48.238;11.160;2024-01-27T04:35:00;4.43;;;1.77;;
5704;SDS011;2877;48.238;11.160;2024-01-27T04:37:26;2.90;;;1.97;;
5704;SDS011;2877;48.238;11.160;2024-01-27T04:39:51;1.37;;;1.27;;
5704;SDS011;2877;48.238;11.160;2024-01-27T04:42:17;4.70;;;1.97;;
5704;SDS011;2877;48.238;11.160;2024-01-27T04:44:42;6.53;;;1.53;;
5704;SDS011;2877;48.238;11.160;2024-01-27T04:47:08;2.90;;;1.77;;
5704;SDS011;2877;48.238;11.160;2024-01-27T04:49:33;6.57;;;1.67;;
5704;SDS011;2877;48.238;11.160;2024-01-27T04:51:59;2.83;;;1.63;;
5704;SDS011;2877;48.238;11.160;2024-01-27T04:54:25;4.00;;;1.70;;
5704;SDS011;2877;48.238;11.160;2024-01-27T04:56:50;2.30;;;1.60;;
5704;SDS011;2877;48.238;11.160;2024-01-27T04:59:16;6.30;;;1.80;;
5704;SDS011;2877;48.238;11.160;2024-01-27T05:01:45;5.53;;;1.57;;
5704;SDS011;2877;48.238;11.160;2024-01-27T05:04:11;4.40;;;2.10;;
5704;SDS011;2877;48.238;11.160;2024-01-27T05:06:37;6.67;;;1.90;;
5704;SDS011;2877;48.238;11.160;2024-01-27T05:09:04;7.37;;;1.83;;
5704;SDS011;2877;48.238;11.160;2024-01-27T05:11:31;5.70;;;1.67;;
5704;SDS011;2877;48.238;11.160;2024-01-27T05:13:58;1.73;;;1.50;;
5704;SDS011;2877;48.238;11.160;2024-01-27T05:16:24;2.10;;;1.47;;
5704;SDS011;2877;48.238;11.160;2024-01-27T05:18:49;3.80;;;1.87;;
5704;SDS011;2877;48.238;11.160;2024-01-27T05:21:15;5.73;;;1.93;;
5704;SDS011;2877;48.238;11.160;2024-01-27T05:23:40;2.20;;;1.77;;
5704;SDS011;2877;48.238;11.160;2024-01-27T05:26:06;3.00;;;1.97;;
5704;SDS011;2877;48.238;11.160;2024-01-27T05:28:32;2.53;;;1.90;;
5704;SDS011;2877;48.238;11.160;2024-01-27T05:30:58;3.33;;;2.10;;
5704;SDS011;2877;48.238;11.160;2024-01-27T05:33:24;4.87;;;2.00;;
5704;SDS011;2877;48.238;11.160;2024-01-27T05:35:49;2.27;;;1.43;;
5704;SDS011;2877;48.238;11.160;2024-01-27T05:38:15;6.43;;;1.80;;
5704;SDS011;2877;48.238;11.160;2024-01-27T05:40:41;3.03;;;2.27;;
5704;SDS011;2877;48.238;11.160;2024-01-27T05:43:07;7.20;;;2.00;;
5704;SDS011;2877;48.238;11.160;2024-01-27T05:45:32;5.00;;;2.50;;
5704;SDS011;2877;48.238;11.160;2024-01-27T05:47:58;4.07;;;1.70;;
5704;SDS011;2877;48.238;11.160;2024-01-27T05:50:23;9.30;;;1.97;;
5704;SDS011;2877;48.238;11.160;2024-01-27T05:52:49;5.40;;;1.53;;
5704;SDS011;2877;48.238;11.160;2024-01-27T05:55:14;6.63;;;1.73;;
5704;SDS011;2877;48.238;11.160;2024-01-27T05:57:41;6.63;;;1.90;;
5704;SDS011;2877;48.238;11.160;2024-01-27T06:00:07;5.43;;;1.90;;
5704;SDS011;2877;48.238;11.160;2024-01-27T06:02:34;6.50;;;1.73;;
5704;SDS011;2877;48.238;11.160;2024-01-27T06:05:01;6.10;;;1.90;;
5704;SDS011;2877;48.238;11.160;2024-01-27T06:07:27;4.40;;;2.10;;
5704;SDS011;2877;48.238;11.160;2024-01-27T06:09:52;6.63;;;1.77;;
5704;SDS011;2877;48.238;11.160;2024-01-27T06:12:18;3.57;;;1.73;;
5704;SDS011;2877;48.238;11.160;2024-01-27T06:14:44;7.90;;;2.20;;
5704;SDS011;2877;48.238;11.160;2024-01-27T06:17:09;9.73;;;2.40;;
5704;SDS011;2877;48.238;11.160;2024-01-27T06:19:35;6.40;;;2.27;;
5704;SDS011;2877;48.238;11.160;2024-01-27T06:22:00;4.10;;;1.97;;
5704;SDS011;2877;48.238;11.160;2024-01-27T06:24:26;5.43;;;2.00;;
5704;SDS011;2877;48.238;11.160;2024-01-27T06:26:52;3.03;;;1.63;;
5704;SDS011;2877;48.238;11.160;2024-01-27T06:29:17;3.43;;;2.17;;
5704;SDS011;2877;48.238;11.160;2024-01-27T06:31:43;5.80;;;2.60;;
5704;SDS011;2877;48.238;11.160;2024-01-27T06:34:09;3.27;;;2.30;;
5704;SDS011;2877;48.238;11.160;2024-01-27T06:36:34;6.30;;;2.10;;
5704;SDS011;2877;48.238;11.160;2024-01-27T06:39:00;4.40;;;2.70;;
5704;SDS011;2877;48.238;11.160;2024-01-27T06:41:25;6.90;;;2.90;;
5704;SDS011;2877;48.238;11.160;2024-01-27T06:43:51;7.30;;;3.30;;
5704;SDS011;2877;48.238;11.160;2024-01-27T06:46:17;4.37;;;2.30;;
5704;SDS011;2877;48.238;11.160;2024-01-27T06:48:42;2.83;;;2.23;;
5704;SDS011;2877;48.238;11.160;2024-01-27T06:51:08;3.73;;;2.70;;
5704;SDS011;2877;48.238;11.160;2024-01-27T06:53:33;8.73;;;2.67;;
5704;SDS011;2877;48.238;11.160;2024-01-27T06:55:59;6.57;;;2.60;;
5704;SDS011;2877;48.238;11.160;2024-01-27T06:58:25;6.63;;;2.50;;
5704;SDS011;2877;48.238;11.160;2024-01-27T07:00:50;6.53;;;2.50;;
5704;SDS011;2877;48.238;11.160;2024-01-27T07:03:16;8.17;;;2.70;;
5704;SDS011;2877;48.238;11.160;2024-01-27T07:05:41;9.20;;;3.43;;
5704;SDS011;2877;48.238;11.160;2024-01-27T07:08:07;5.23;;;2.57;;
5704;SDS011;2877;48.238;11.160;2024-01-27T07:10:33;5.30;;;3.03;;
5704;SDS011;2877;48.238;11.160;2024-01-27T07:12:59;5.60;;;2.83;;
5704;SDS011;2877;48.238;11.160;2024-01-27T07:15:25;5.00;;;2.73;;
5704;SDS011;2877;48.238;11.160;2024-01-27T07:17:51;5.77;;;3.10;;
5704;SDS011;2877;48.238;11.160;2024-01-27T07:20:18;4.60;;;2.40;;
5704;SDS011;2877;48.238;11.160;2024-01-27T07:22:44;7.10;;;2.70;;
5704;SDS011;2877;48.238;11.160;2024-01-27T07:25:09;5.10;;;3.70;;
5704;SDS011;2877;48.238;11.160;2024-01-27T07:27:35;8.70;;;3.90;;
5704;SDS011;2877;48.238;11.160;2024-01-27T07:30:02;3.37;;;2.93;;
5704;SDS011;2877;48.238;11.160;2024-01-27T07:32:28;7.73;;;4.00;;
5704;SDS011;2877;48.238;11.160;2024-01-27T07:34:53;5.17;;;3.07;;
5704;SDS011;2877;48.238;11.160;2024-01-27T07:37:19;6.27;;;2.80;;
5704;SDS011;2877;48.238;11.160;2024-01-27T07:39:45;6.23;;;3.20;;
5704;SDS011;2877;48.238;11.160;2024-01-27T07:42:11;5.03;;;2.90;;
5704;SDS011;2877;48.238;11.160;2024-01-27T07:44:37;4.47;;;3.33;;
5704;SDS011;2877;48.238;11.160;2024-01-27T07:47:03;6.53;;;3.00;;
5704;SDS011;2877;48.238;11.160;2024-01-27T07:49:28;5.30;;;3.10;;
5704;SDS011;2877;48.238;11.160;2024-01-27T07:51:54;8.13;;;3.10;;
5704;SDS011;2877;48.238;11.160;2024-01-27T07:54:20;5.87;;;3.23;;
5704;SDS011;2877;48.238;11.160;2024-01-27T07:56:45;3.27;;;2.93;;
5704;SDS011;2877;48.238;11.160;2024-01-27T07:59:12;6.00;;;3.37;;
5704;SDS011;2877;48.238;11.160;2024-01-27T08:01:42;8.37;;;2.93;;
5704;SDS011;2877;48.238;11.160;2024-01-27T08:04:07;5.77;;;2.90;;
5704;SDS011;2877;48.238;11.160;2024-01-27T08:06:33;5.97;;;2.90;;
5704;SDS011;2877;48.238;11.160;2024-01-27T08:08:59;4.40;;;2.77;;
5704;SDS011;2877;48.238;11.160;2024-01-27T08:11:24;7.27;;;3.33;;
5704;SDS011;2877;48.238;11.160;2024-01-27T08:13:50;6.90;;;3.10;;
5704;SDS011;2877;48.238;11.160;2024-01-27T08:16:16;6.03;;;3.10;;
5704;SDS011;2877;48.238;11.160;2024-01-27T08:18:42;8.37;;;3.20;;
5704;SDS011;2877;48.238;11.160;2024-01-27T08:21:09;7.90;;;3.10;;
5704;SDS011;2877;48.238;11.160;2024-01-27T08:23:36;4.43;;;3.00;;
5704;SDS011;2877;48.238;11.160;2024-01-27T08:26:02;13.10;;;4.40;;
5704;SDS011;2877;48.238;11.160;2024-01-27T08:28:28;14.20;;;6.50;;
5704;SDS011;2877;48.238;11.160;2024-01-27T08:30:53;13.50;;;7.57;;
5704;SDS011;2877;48.238;11.160;2024-01-27T08:33:19;17.03;;;8.57;;
5704;SDS011;2877;48.238;11.160;2024-01-27T08:35:47;6.70;;;4.77;;
5704;SDS011;2877;48.238;11.160;2024-01-27T08:38:13;10.93;;;5.00;;
5704;SDS011;2877;48.238;11.160;2024-01-27T08:40:39;9.73;;;4.47;;
5704;SDS011;2877;48.238;11.160;2024-01-27T08:43:05;9.63;;;4.57;;
5704;SDS011;2877;48.238;11.160;2024-01-27T08:45:30;6.87;;;4.03;;
5704;SDS011;2877;48.238;11.160;2024-01-27T08:47:58;13.13;;;4.87;;
5704;SDS011;2877;48.238;11.160;2024-01-27T08:50:25;8.63;;;4.10;;
5704;SDS011;2877;48.238;11.160;2024-01-27T08:52:51;9.23;;;3.83;;
5704;SDS011;2877;48.238;11.160;2024-01-27T08:55:16;14.63;;;4.10;;
5704;SDS011;2877;48.238;11.160;2024-01-27T08:57:44;7.13;;;3.70;;
5704;SDS011;2877;48.238;11.160;2024-01-27T09:00:11;9.00;;;4.40;;
5704;SDS011;2877;48.238;11.160;2024-01-27T09:02:38;11.13;;;4.00;;
5704;SDS011;2877;48.238;11.160;2024-01-27T09:05:03;5.20;;;3.80;;
5704;SDS011;2877;48.238;11.160;2024-01-27T09:07:30;4.87;;;3.27;;
5704;SDS011;2877;48.238;11.160;2024-01-27T09:09:56;12.90;;;3.70;;
5704;SDS011;2877;48.238;11.160;2024-01-27T09:12:21;4.93;;;3.80;;
5704;SDS011;2877;48.238;11.160;2024-01-27T09:14:47;11.77;;;3.73;;
5704;SDS011;2877;48.238;11.160;2024-01-27T09:17:12;7.03;;;3.60;;
5704;SDS011;2877;48.238;11.160;2024-01-27T09:19:38;5.40;;;3.33;;
5704;SDS011;2877;48.238;11.160;2024-01-27T09:22:03;6.53;;;3.60;;
5704;SDS011;2877;48.238;11.160;2024-01-27T09:24:29;6.97;;;4.43;;
5704;SDS011;2877;48.238;11.160;2024-01-27T09:26:54;7.93;;;3.20;;
5704;SDS011;2877;48.238;11.160;2024-01-27T09:29:20;4.87;;;3.20;;
5704;SDS011;2877;48.238;11.160;2024-01-27T09:31:46;8.03;;;3.60;;
5704;SDS011;2877;48.238;11.160;2024-01-27T09:34:11;5.03;;;3.40;;
5704;SDS011;2877;48.238;11.160;2024-01-27T09:36:37;6.00;;;3.17;;
5704;SDS011;2877;48.238;11.160;2024-01-27T09:39:02;7.30;;;3.30;;
5704;SDS011;2877;48.238;11.160;2024-01-27T09:41:31;6.60;;;3.53;;
5704;SDS011;2877;48.238;11.160;2024-01-27T09:43:58;4.70;;;3.50;;
5704;SDS011;2877;48.238;11.160;2024-01-27T09:46:27;9.10;;;3.30;;
5704;SDS011;2877;48.238;11.160;2024-01-27T09:48:53;10.47;;;3.77;;
5704;SDS011;2877;48.238;11.160;2024-01-27T09:51:19;5.30;;;3.20;;
5704;SDS011;2877;48.238;11.160;2024-01-27T09:53:44;10.17;;;3.30;;
5704;SDS011;2877;48.238;11.160;2024-01-27T09:56:10;4.50;;;3.10;;
5704;SDS011;2877;48.238;11.160;2024-01-27T09:58:42;5.47;;;3.00;;
5704;SDS011;2877;48.238;11.160;2024-01-27T10:01:09;5.07;;;2.80;;
5704;SDS011;2877;48.238;11.160;2024-01-27T10:03:35;5.20;;;2.70;;
5704;SDS011;2877;48.238;11.160;2024-01-27T10:06:09;14.30;;;3.80;;
5704;SDS011;2877;48.238;11.160;2024-01-27T10:08:35;11.23;;;2.87;;
5704;SDS011;2877;48.238;11.160;2024-01-27T10:11:08;3.10;;;2.80;;
5704;SDS011;2877;48.238;11.160;2024-01-27T10:13:35;7.90;;;3.27;;
5704;SDS011;2877;48.238;11.160;2024-01-27T10:16:04;7.40;;;2.70;;
5704;SDS011;2877;48.238;11.160;2024-01-27T10:18:31;9.43;;;3.30;;
5704;SDS011;2877;48.238;11.160;2024-01-27T10:20:57;6.00;;;2.70;;
5704;SDS011;2877;48.238;11.160;2024-01-27T10:23:23;5.53;;;3.27;;
5704;SDS011;2877;48.238;11.160;2024-01-27T10:25:49;7.50;;;2.60;;
5704;SDS011;2877;48.238;11.160;2024-01-27T10:28:16;4.53;;;3.53;;
5704;SDS011;2877;48.238;11.160;2024-01-27T10:30:42;6.20;;;2.97;;
5704;SDS011;2877;48.238;11.160;2024-01-27T10:33:08;7.27;;;3.43;;
5704;SDS011;2877;48.238;11.160;2024-01-27T10:35:41;4.80;;;2.83;;
5704;SDS011;2877;48.238;11.160;2024-01-27T10:38:07;3.00;;;2.70;;
5704;SDS011;2877;48.238;11.160;2024-01-27T10:40:34;6.40;;;2.20;;
5704;SDS011;2877;48.238;11.160;2024-01-27T10:43:04;6.50;;;2.77;;
5704;SDS011;2877;48.238;11.160;2024-01-27T10:45:34;2.27;;;1.93;;
5704;SDS011;2877;48.238;11.160;2024-01-27T10:48:02;6.20;;;2.00;;
5704;SDS011;2877;48.238;11.160;2024-01-27T10:50:28;4.90;;;2.17;;
5704;SDS011;2877;48.238;11.160;2024-01-27T10:52:54;2.83;;;2.00;;
5704;SDS011;2877;48.238;11.160;2024-01-27T10:55:23;4.10;;;1.50;;
5704;SDS011;2877;48.238;11.160;2024-01-27T10:57:50;2.67;;;1.60;;
5704;SDS011;2877;48.238;11.160;2024-01-27T11:00:18;4.90;;;1.80;;
5704;SDS011;2877;48.238;11.160;2024-01-27T11:02:44;5.93;;;2.37;;
5704;SDS011;2877;48.238;11.160;2024-01-27T11:05:10;8.97;;;2.27;;
5704;SDS011;2877;48.238;11.160;2024-01-27T11:07:36;6.50;;;1.80;;
5704;SDS011;2877;48.238;11.160;2024-01-27T11:10:04;3.90;;;2.07;;
5704;SDS011;2877;48.238;11.160;2024-01-27T11:12:30;5.20;;;2.10;;
5704;SDS011;2877;48.238;11.160;2024-01-27T11:14:56;7.17;;;2.13;;
5704;SDS011;2877;48.238;11.160;2024-01-27T11:17:23;7.33;;;2.20;;
5704;SDS011;2877;48.238;11.160;2024-01-27T11:19:49;1.80;;;1.60;;
5704;SDS011;2877;48.238;11.160;2024-01-27T11:22:25;5.90;;;1.53;;
5704;SDS011;2877;48.238;11.160;2024-01-27T11:25:06;4.53;;;1.80;;
5704;SDS011;2877;48.238;11.160;2024-01-27T11:27:35;6.20;;;1.67;;
5704;SDS011;2877;48.238;11.160;2024-01-27T11:30:01;2.20;;;1.63;;
5704;SDS011;2877;48.238;11.160;2024-01-27T11:32:27;2.50;;;2.03;;
5704;SDS011;2877;48.238;11.160;2024-01-27T11:34:52;5.67;;;1.97;;
5704;SDS011;2877;48.238;11.160;2024-01-27T11:37:18;8.03;;;1.70;;
5704;SDS011;2877;48.238;11.160;2024-01-27T11:39:50;8.93;;;1.90;;
5704;SDS011;2877;48.238;11.160;2024-01-27T11:42:17;5.77;;;2.00;;
5704;SDS011;2877;48.238;11.160;2024-01-27T11:44:43;9.93;;;1.90;;
5704;SDS011;2877;48.238;11.160;2024-01-27T11:47:16;5.00;;;1.90;;
5704;SDS011;2877;48.238;11.160;2024-01-27T11:49:43;5.97;;;1.93;;
5704;SDS011;2877;48.238;11.160;2024-01-27T11:52:16;2.90;;;1.57;;
5704;SDS011;2877;48.238;11.160;2024-01-27T11:54:42;9.00;;;1.93;;
5704;SDS011;2877;48.238;11.160;2024-01-27T11:57:08;5.10;;;1.60;;
5704;SDS011;2877;48.238;11.160;2024-01-27T11:59:34;3.77;;;1.70;;
5704;SDS011;2877;48.238;11.160;2024-01-27T12:02:00;3.13;;;1.90;;
5704;SDS011;2877;48.238;11.160;2024-01-27T12:04:26;2.70;;;1.60;;
5704;SDS011;2877;48.238;11.160;2024-01-27T12:06:52;4.30;;;1.30;;
5704;SDS011;2877;48.238;11.160;2024-01-27T12:09:19;2.30;;;1.70;;
5704;SDS011;2877;48.238;11.160;2024-01-27T12:11:45;2.57;;;1.87;;
5704;SDS011;2877;48.238;11.160;2024-01-27T12:14:11;4.10;;;2.27;;
5704;SDS011;2877;48.238;11.160;2024-01-27T12:16:37;2.17;;;1.50;;
5704;SDS011;2877;48.238;11.160;2024-01-27T12:19:03;2.33;;;1.40;;
5704;SDS011;2877;48.238;11.160;2024-01-27T12:21:29;4.40;;;1.60;;
5704;SDS011;2877;48.238;11.160;2024-01-27T12:23:55;2.17;;;1.60;;
5704;SDS011;2877;48.238;11.160;2024-01-27T12:26:22;4.90;;;2.00;;
5704;SDS011;2877;48.238;11.160;2024-01-27T12:28:54;5.27;;;1.53;;
5704;SDS011;2877;48.238;11.160;2024-01-27T12:31:20;4.80;;;2.00;;
5704;SDS011;2877;48.238;11.160;2024-01-27T12:33:51;4.10;;;1.77;;
5704;SDS011;2877;48.238;11.160;2024-01-27T12:36:18;8.60;;;2.07;;
5704;SDS011;2877;48.238;11.160;2024-01-27T12:38:56;6.13;;;2.10;;
5704;SDS011;2877;48.238;11.160;2024-01-27T12:41:26;4.57;;;1.97;;
5704;SDS011;2877;48.238;11.160;2024-01-27T12:43:52;2.40;;;1.63;;
5704;SDS011;2877;48.238;11.160;2024-01-27T12:46:18;2.33;;;2.13;;
5704;SDS011;2877;48.238;11.160;2024-01-27T12:48:47;5.97;;;1.80;;
5704;SDS011;2877;48.238;11.160;2024-01-27T12:51:13;2.30;;;1.67;;
5704;SDS011;2877;48.238;11.160;2024-01-27T12:53:39;5.73;;;1.63;;
5704;SDS011;2877;48.238;11.160;2024-01-27T12:56:14;2.73;;;2.00;;
5704;SDS011;2877;48.238;11.160;2024-01-27T12:58:40;4.57;;;1.87;;
5704;SDS011;2877;48.238;11.160;2024-01-27T13:01:07;2.97;;;1.80;;
5704;SDS011;2877;48.238;11.160;2024-01-27T13:03:33;7.83;;;2.43;;
5704;SDS011;2877;48.238;11.160;2024-01-27T13:06:00;3.40;;;1.90;;
5704;SDS011;2877;48.238;11.160;2024-01-27T13:08:26;3.40;;;2.43;;
5704;SDS011;2877;48.238;11.160;2024-01-27T13:10:52;2.50;;;1.63;;
5704;SDS011;2877;48.238;11.160;2024-01-27T13:13:18;3.90;;;2.23;;
5704;SDS011;2877;48.238;11.160;2024-01-27T13:15:44;4.83;;;2.13;;
5704;SDS011;2877;48.238;11.160;2024-01-27T13:18:10;3.33;;;1.90;;
5704;SDS011;2877;48.238;11.160;2024-01-27T13:20:36;6.00;;;1.53;;
5704;SDS011;2877;48.238;11.160;2024-01-27T13:23:01;4.50;;;1.97;;
5704;SDS011;2877;48.238;11.160;2024-01-27T13:25:27;4.10;;;1.40;;
5704;SDS011;2877;48.238;11.160;2024-01-27T13:27:53;4.23;;;2.17;;
5704;SDS011;2877;48.238;11.160;2024-01-27T13:30:18;5.63;;;1.70;;
5704;SDS011;2877;48.238;11.160;2024-01-27T13:32:44;2.70;;;1.50;;
5704;SDS011;2877;48.238;11.160;2024-01-27T13:35:10;3.47;;;2.00;;
5704;SDS011;2877;48.238;11.160;2024-01-27T13:37:36;2.43;;;1.53;;
5704;SDS011;2877;48.238;11.160;2024-01-27T13:40:02;3.00;;;1.90;;
5704;SDS011;2877;48.238;11.160;2024-01-27T13:42:29;5.43;;;1.70;;
5704;SDS011;2877;48.238;11.160;2024-01-27T13:44:55;3.13;;;1.67;;
5704;SDS011;2877;48.238;11.160;2024-01-27T13:47:20;3.80;;;2.13;;
5704;SDS011;2877;48.238;11.160;2024-01-27T13:49:46;2.40;;;1.50;;
5704;SDS011;2877;48.238;11.160;2024-01-27T13:52:12;3.10;;;1.80;;
5704;SDS011;2877;48.238;11.160;2024-01-27T13:54:38;4.13;;;1.73;;
5704;SDS011;2877;48.238;11.160;2024-01-27T13:57:03;2.20;;;1.60;;
5704;SDS011;2877;48.238;11.160;2024-01-27T13:59:29;3.33;;;1.70;;
5704;SDS011;2877;48.238;11.160;2024-01-27T14:01:55;4.50;;;1.83;;
5704;SDS011;2877;48.238;11.160;2024-01-27T14:04:24;6.27;;;2.10;;
5704;SDS011;2877;48.238;11.160;2024-01-27T14:06:50;1.87;;;1.57;;
5704;SDS011;2877;48.238;11.160;2024-01-27T14:09:18;4.77;;;1.77;;
5704;SDS011;2877;48.238;11.160;2024-01-27T14:11:44;2.90;;;1.70;;
5704;SDS011;2877;48.238;11.160;2024-01-27T14:14:10;4.13;;;2.00;;
5704;SDS011;2877;48.238;11.160;2024-01-27T14:16:35;2.97;;;2.20;;
5704;SDS011;2877;48.238;11.160;2024-01-27T14:19:01;3.73;;;2.00;;
5704;SDS011;2877;48.238;11.160;2024-01-27T14:21:26;4.03;;;1.77;;
5704;SDS011;2877;48.238;11.160;2024-01-27T14:23:53;3.30;;;1.93;;
5704;SDS011;2877;48.238;11.160;2024-01-27T14:26:26;5.40;;;1.70;;
5704;SDS011;2877;48.238;11.160;2024-01-27T14:28:53;2.93;;;2.03;;
5704;SDS011;2877;48.238;11.160;2024-01-27T14:31:18;1.43;;;1.30;;
5704;SDS011;2877;48.238;11.160;2024-01-27T14:33:44;1.93;;;1.50;;
5704;SDS011;2877;48.238;11.160;2024-01-27T14:36:09;9.23;;;3.30;;
5704;SDS011;2877;48.238;11.160;2024-01-27T14:38:36;6.00;;;1.90;;
5704;SDS011;2877;48.238;11.160;2024-01-27T14:41:02;4.33;;;1.60;;
5704;SDS011;2877;48.238;11.160;2024-01-27T14:43:28;2.30;;;1.50;;
5704;SDS011;2877;48.238;11.160;2024-01-27T14:45:54;6.10;;;1.70;;
5704;SDS011;2877;48.238;11.160;2024-01-27T14:48:20;6.00;;;1.93;;
5704;SDS011;2877;48.238;11.160;2024-01-27T14:50:46;3.57;;;1.57;;
5704;SDS011;2877;48.238;11.160;2024-01-27T14:53:22;5.73;;;1.30;;